Time;durP1;ratioP1;P1;durP2;ratioP2;P2;SDS_P1;SDS_P2;PMS_P1;PMS_P2;Temp;Humidity;BMP_temperature;BMP_pressure;BME280_temperature;BME280_humidity;BME280_pressure;Samples;Min_cycle;Max_cycle;Signal;HPM_P1;HPM_P2
2022/10/06 00:00:50;;;;;;;5.68;0.90;;;;;;;;;;5052354;28;20045;-71
2022/10/06 00:03:16;;;;;;;8.02;1.10;;;;;;;;;;5055139;28;20045;-70
2022/10/06 00:05:43;;;;;;;8.27;0.90;;;;;;;;;;5055223;28;20055;-71
2022/10/06 00:08:09;;;;;;;5.32;1.17;;;;;;;;;;5055713;28;20126;-70
2022/10/06 00:10:35;;;;;;;8.23;1.55;;;;;;;;;;5051015;28;20037;-70
2022/10/06 00:13:01;;;;;;;8.05;1.40;;;;;;;;;;5050864;28;20048;-71
2022/10/06 00:15:30;;;;;;;7.28;1.40;;;;;;;;;;5051286;28;20067;-71
2022/10/06 00:17:56;;;;;;;7.88;1.10;;;;;;;;;;5048770;28;20053;-71
2022/10/06 00:20:23;;;;;;;7.88;1.30;;;;;;;;;;5053398;28;20041;-70
2022/10/06 00:22:49;;;;;;;7.93;1.30;;;;;;;;;;5046793;28;20045;-71
2022/10/06 00:25:18;;;;;;;10.63;1.40;;;;;;;;;;5052016;28;20116;-71
2022/10/06 00:27:48;;;;;;;8.70;1.25;;;;;;;;;;5053640;28;20139;-70
2022/10/06 00:30:16;;;;;;;8.60;1.50;;;;;;;;;;5053587;28;20044;-70
2022/10/06 00:32:49;;;;;;;6.63;1.23;;;;;;;;;;5053596;28;20064;-71
2022/10/06 00:35:16;;;;;;;5.38;0.93;;;;;;;;;;5054533;28;20119;-70
2022/10/06 00:37:42;;;;;;;9.63;1.67;;;;;;;;;;5051955;28;20047;-70
2022/10/06 00:40:09;;;;;;;8.15;1.20;;;;;;;;;;5053000;28;20438;-70
2022/10/06 00:42:47;;;;;;;6.75;0.98;;;;;;;;;;5052995;28;20102;-70
2022/10/06 00:45:14;;;;;;;7.88;1.30;;;;;;;;;;5054348;28;20122;-70
2022/10/06 00:47:40;;;;;;;8.40;1.05;;;;;;;;;;5049229;28;20445;-71
2022/10/06 00:50:07;;;;;;;6.70;1.10;;;;;;;;;;5051098;28;20431;-70
2022/10/06 00:52:33;;;;;;;10.73;1.27;;;;;;;;;;5052060;28;20494;-70
2022/10/06 00:54:59;;;;;;;7.10;1.17;;;;;;;;;;5047917;28;20054;-70
2022/10/06 00:57:26;;;;;;;7.72;1.15;;;;;;;;;;5043334;28;20041;-70
2022/10/06 00:59:53;;;;;;;8.90;1.10;;;;;;;;;;5042781;28;20033;-70
2022/10/06 01:02:24;;;;;;;5.88;1.20;;;;;;;;;;5044786;28;20044;-70
2022/10/06 01:04:54;;;;;;;6.68;0.98;;;;;;;;;;5045631;28;20044;-71
2022/10/06 01:07:22;;;;;;;7.72;1.10;;;;;;;;;;5046021;28;20041;-71
2022/10/06 01:09:48;;;;;;;9.60;1.27;;;;;;;;;;5044378;28;20045;-71
2022/10/06 01:12:14;;;;;;;7.20;1.13;;;;;;;;;;5044035;28;20095;-72
2022/10/06 01:14:41;;;;;;;9.82;1.67;;;;;;;;;;5066574;28;20049;-71
2022/10/06 01:17:11;;;;;;;6.97;1.00;;;;;;;;;;5044859;28;20037;-71
2022/10/06 01:19:40;;;;;;;7.45;1.40;;;;;;;;;;5044234;28;20503;-71
2022/10/06 01:22:07;;;;;;;7.03;1.15;;;;;;;;;;5043971;28;20044;-71
2022/10/06 01:24:33;;;;;;;7.95;1.33;;;;;;;;;;5042267;28;20045;-70
2022/10/06 01:27:00;;;;;;;10.15;1.40;;;;;;;;;;5050903;28;20525;-71
2022/10/06 01:29:26;;;;;;;9.07;1.50;;;;;;;;;;5052449;28;20098;-71
2022/10/06 01:31:52;;;;;;;10.82;1.88;;;;;;;;;;5034127;28;20057;-71
2022/10/06 01:34:18;;;;;;;11.57;1.60;;;;;;;;;;5051996;28;20056;-70
2022/10/06 01:36:45;;;;;;;9.23;1.27;;;;;;;;;;5052510;28;20053;-70
2022/10/06 01:39:11;;;;;;;8.45;1.40;;;;;;;;;;5052960;28;20091;-71
2022/10/06 01:41:37;;;;;;;11.18;1.67;;;;;;;;;;5054025;28;20454;-70
2022/10/06 01:44:03;;;;;;;14.10;1.92;;;;;;;;;;5053469;28;20453;-70
2022/10/06 01:46:30;;;;;;;13.13;1.55;;;;;;;;;;5050557;28;20056;-70
2022/10/06 01:48:56;;;;;;;7.75;1.50;;;;;;;;;;5052067;28;20615;-70
2022/10/06 01:51:22;;;;;;;9.43;1.25;;;;;;;;;;5052534;28;20053;-70
2022/10/06 01:53:48;;;;;;;10.35;1.65;;;;;;;;;;5032765;28;20049;-71
2022/10/06 01:56:14;;;;;;;9.45;1.20;;;;;;;;;;5049028;28;20057;-70
2022/10/06 01:58:40;;;;;;;10.98;1.70;;;;;;;;;;5051332;28;20045;-70
2022/10/06 02:01:07;;;;;;;13.50;1.50;;;;;;;;;;5052454;28;20041;-70
2022/10/06 02:03:37;;;;;;;11.45;2.08;;;;;;;;;;5052141;28;20045;-71
2022/10/06 02:06:03;;;;;;;10.85;1.70;;;;;;;;;;5053487;28;20049;-70
2022/10/06 02:08:29;;;;;;;10.30;1.55;;;;;;;;;;5053488;28;20107;-70
2022/10/06 02:10:56;;;;;;;11.68;1.88;;;;;;;;;;5051019;28;20053;-70
2022/10/06 02:13:25;;;;;;;9.85;1.48;;;;;;;;;;5050394;28;20087;-70
2022/10/06 02:15:55;;;;;;;8.55;1.40;;;;;;;;;;5052499;28;20067;-70
2022/10/06 02:18:21;;;;;;;12.00;2.03;;;;;;;;;;5047679;28;20044;-71
2022/10/06 02:20:47;;;;;;;11.32;1.50;;;;;;;;;;5044303;28;20499;-70
2022/10/06 02:23:14;;;;;;;10.60;1.42;;;;;;;;;;5049630;28;20069;-71
2022/10/06 02:25:40;;;;;;;14.43;1.67;;;;;;;;;;5052452;28;20513;-70
2022/10/06 02:28:06;;;;;;;9.50;1.60;;;;;;;;;;5053074;28;20052;-71
2022/10/06 02:30:32;;;;;;;14.48;2.00;;;;;;;;;;5051295;28;20495;-71
2022/10/06 02:32:58;;;;;;;13.48;1.63;;;;;;;;;;5050672;28;20514;-71
2022/10/06 02:35:24;;;;;;;9.90;1.60;;;;;;;;;;5035080;28;20053;-70
2022/10/06 02:37:50;;;;;;;11.73;1.67;;;;;;;;;;5052060;28;20045;-71
2022/10/06 02:40:17;;;;;;;11.30;1.70;;;;;;;;;;5052184;28;20461;-71
2022/10/06 02:42:44;;;;;;;15.50;2.00;;;;;;;;;;5049909;28;20052;-71
2022/10/06 02:45:11;;;;;;;12.63;2.60;;;;;;;;;;5052207;28;20060;-71
2022/10/06 02:47:37;;;;;;;10.00;1.67;;;;;;;;;;5051273;28;20399;-71
2022/10/06 02:50:04;;;;;;;11.77;2.05;;;;;;;;;;5051211;28;20040;-71
2022/10/06 02:52:35;;;;;;;9.98;1.80;;;;;;;;;;5031210;28;20049;-70
2022/10/06 02:55:04;;;;;;;11.90;1.93;;;;;;;;;;5050905;28;20124;-71
2022/10/06 02:57:31;;;;;;;13.07;2.10;;;;;;;;;;5051766;28;20045;-71
2022/10/06 02:59:57;;;;;;;12.38;2.45;;;;;;;;;;5052121;28;20052;-71
2022/10/06 03:02:23;;;;;;;10.27;2.40;;;;;;;;;;5048901;28;20048;-70
2022/10/06 03:04:49;;;;;;;14.55;2.17;;;;;;;;;;5050328;28;20044;-70
2022/10/06 03:07:15;;;;;;;13.07;2.10;;;;;;;;;;5052095;28;20091;-71
2022/10/06 03:09:41;;;;;;;9.23;1.90;;;;;;;;;;5052461;28;20045;-70
2022/10/06 03:12:07;;;;;;;10.00;1.80;;;;;;;;;;5046725;28;20518;-70
2022/10/06 03:14:33;;;;;;;11.68;1.58;;;;;;;;;;5051093;28;20080;-71
2022/10/06 03:17:00;;;;;;;10.15;1.63;;;;;;;;;;5051260;28;20041;-71
2022/10/06 03:19:26;;;;;;;9.57;1.80;;;;;;;;;;5049757;28;20068;-70
2022/10/06 03:21:52;;;;;;;8.18;1.77;;;;;;;;;;5048751;28;20111;-70
2022/10/06 03:24:18;;;;;;;13.25;1.90;;;;;;;;;;5048966;28;20491;-70
2022/10/06 03:26:46;;;;;;;14.25;2.20;;;;;;;;;;5051214;28;20048;-71
2022/10/06 03:29:14;;;;;;;9.07;1.63;;;;;;;;;;5051511;28;20037;-71
2022/10/06 03:31:41;;;;;;;12.73;2.10;;;;;;;;;;5050965;28;20518;-72
2022/10/06 03:34:07;;;;;;;11.63;2.63;;;;;;;;;;5051444;28;20167;-72
2022/10/06 03:36:33;;;;;;;15.00;2.80;;;;;;;;;;5048892;28;20098;-71
2022/10/06 03:39:00;;;;;;;9.57;1.70;;;;;;;;;;5051524;28;20406;-71
2022/10/06 03:41:33;;;;;;;13.45;2.33;;;;;;;;;;5042962;28;20491;-71
2022/10/06 03:44:00;;;;;;;14.00;2.10;;;;;;;;;;5050813;28;20045;-71
2022/10/06 03:46:27;;;;;;;10.93;2.45;;;;;;;;;;5049862;28;20064;-71
2022/10/06 03:48:54;;;;;;;13.15;2.17;;;;;;;;;;5050068;28;20071;-71
2022/10/06 03:51:21;;;;;;;10.93;1.98;;;;;;;;;;5048764;28;20165;-71
2022/10/06 03:53:48;;;;;;;11.40;1.83;;;;;;;;;;5025341;28;20045;-71
2022/10/06 03:56:18;;;;;;;10.77;1.75;;;;;;;;;;5049763;28;20049;-71
2022/10/06 03:58:45;;;;;;;12.95;2.03;;;;;;;;;;5050296;28;20052;-71
2022/10/06 04:01:16;;;;;;;10.88;1.80;;;;;;;;;;5049416;28;20048;-70
2022/10/06 04:03:42;;;;;;;17.53;2.37;;;;;;;;;;5050976;28;20510;-71
2022/10/06 04:06:11;;;;;;;11.70;2.15;;;;;;;;;;5050901;28;20067;-71
2022/10/06 04:08:37;;;;;;;12.55;1.83;;;;;;;;;;5050056;28;20510;-71
2022/10/06 04:11:07;;;;;;;13.25;2.35;;;;;;;;;;5049502;28;20375;-71
2022/10/06 04:13:33;;;;;;;10.80;1.70;;;;;;;;;;5042510;28;20045;-72
2022/10/06 04:16:08;;;;;;;13.38;2.22;;;;;;;;;;5050267;28;20049;-71
2022/10/06 04:18:34;;;;;;;10.38;1.70;;;;;;;;;;5046583;28;20047;-71
2022/10/06 04:21:00;;;;;;;12.30;2.00;;;;;;;;;;5013452;28;20041;-71
2022/10/06 04:23:26;;;;;;;12.80;2.45;;;;;;;;;;5049626;28;20048;-71
2022/10/06 04:25:58;;;;;;;10.93;2.00;;;;;;;;;;5051588;28;20049;-71
2022/10/06 04:28:24;;;;;;;12.57;2.08;;;;;;;;;;5048575;28;20037;-71
2022/10/06 04:30:57;;;;;;;10.98;2.05;;;;;;;;;;5050468;28;20126;-71
2022/10/06 04:33:23;;;;;;;10.55;1.65;;;;;;;;;;5064934;28;20495;-71
2022/10/06 04:35:59;;;;;;;12.48;1.90;;;;;;;;;;5049623;28;20045;-71
2022/10/06 04:38:27;;;;;;;10.48;1.73;;;;;;;;;;5050579;28;20041;-70
2022/10/06 04:40:53;;;;;;;16.75;2.00;;;;;;;;;;5054339;28;20041;-71
2022/10/06 04:43:19;;;;;;;12.55;1.85;;;;;;;;;;5052582;28;20057;-71
2022/10/06 04:45:45;;;;;;;14.80;2.17;;;;;;;;;;5060610;28;20055;-71
2022/10/06 04:48:12;;;;;;;13.43;1.95;;;;;;;;;;5050489;28;20044;-71
2022/10/06 04:50:38;;;;;;;9.02;1.70;;;;;;;;;;5054162;28;20073;-71
2022/10/06 04:53:04;;;;;;;14.88;2.05;;;;;;;;;;5053221;28;20037;-71
2022/10/06 04:55:30;;;;;;;14.63;2.13;;;;;;;;;;5051930;28;20132;-71
2022/10/06 04:57:56;;;;;;;12.70;1.95;;;;;;;;;;5053479;28;20045;-71
2022/10/06 05:00:23;;;;;;;12.93;1.90;;;;;;;;;;5052603;28;20048;-71
2022/10/06 05:02:49;;;;;;;14.35;2.53;;;;;;;;;;5054351;28;20415;-72
2022/10/06 05:05:15;;;;;;;13.60;1.85;;;;;;;;;;5051852;28;20376;-72
2022/10/06 05:07:44;;;;;;;19.08;2.60;;;;;;;;;;5071098;28;20056;-71
2022/10/06 05:10:10;;;;;;;12.48;1.88;;;;;;;;;;5052642;28;20483;-71
2022/10/06 05:12:36;;;;;;;12.15;2.42;;;;;;;;;;5051122;28;20044;-71
2022/10/06 05:15:02;;;;;;;16.50;3.08;;;;;;;;;;5051840;28;20045;-71
2022/10/06 05:17:28;;;;;;;15.52;2.58;;;;;;;;;;5053117;28;20491;-72
2022/10/06 05:19:54;;;;;;;12.15;2.88;;;;;;;;;;5052463;28;20517;-71
2022/10/06 05:22:20;;;;;;;12.52;2.60;;;;;;;;;;5052421;28;20128;-71
2022/10/06 05:24:46;;;;;;;13.02;2.05;;;;;;;;;;5035120;28;20053;-71
2022/10/06 05:27:12;;;;;;;16.27;2.22;;;;;;;;;;5054175;28;20508;-71
2022/10/06 05:29:38;;;;;;;12.75;2.10;;;;;;;;;;5050730;28;20037;-71
2022/10/06 05:32:04;;;;;;;15.80;2.63;;;;;;;;;;5048413;28;20463;-71
2022/10/06 05:34:30;;;;;;;15.60;2.22;;;;;;;;;;5067799;28;20260;-71
2022/10/06 05:36:56;;;;;;;13.23;2.45;;;;;;;;;;5053528;28;20119;-71
2022/10/06 05:39:22;;;;;;;12.88;2.70;;;;;;;;;;5051737;28;20131;-71
2022/10/06 05:41:48;;;;;;;14.82;2.97;;;;;;;;;;5050415;28;20139;-71
2022/10/06 05:44:14;;;;;;;11.55;2.13;;;;;;;;;;5051482;28;20048;-71
2022/10/06 05:46:40;;;;;;;13.77;2.13;;;;;;;;;;5052132;28;20045;-71
2022/10/06 05:49:09;;;;;;;12.20;2.45;;;;;;;;;;5047627;28;20041;-71
2022/10/06 05:51:35;;;;;;;13.48;2.65;;;;;;;;;;5034230;28;20045;-70
2022/10/06 05:54:02;;;;;;;12.63;2.90;;;;;;;;;;5049977;28;20045;-70
2022/10/06 05:56:31;;;;;;;13.93;2.83;;;;;;;;;;5038149;28;20055;-71
2022/10/06 05:58:58;;;;;;;16.95;2.45;;;;;;;;;;5051551;28;20056;-71
2022/10/06 06:01:28;;;;;;;14.73;2.20;;;;;;;;;;5049773;28;20044;-70
2022/10/06 06:04:05;;;;;;;12.53;2.00;;;;;;;;;;5036308;28;20041;-72
2022/10/06 06:06:35;;;;;;;17.60;2.53;;;;;;;;;;5049585;28;20125;-71
2022/10/06 06:09:05;;;;;;;15.53;1.90;;;;;;;;;;5051919;28;20033;-71
2022/10/06 06:11:32;;;;;;;14.63;2.13;;;;;;;;;;5016849;28;20783;-71
2022/10/06 06:13:58;;;;;;;13.68;2.22;;;;;;;;;;5033538;28;20040;-71
2022/10/06 06:16:25;;;;;;;16.55;3.00;;;;;;;;;;5034109;28;20512;-71
2022/10/06 06:18:51;;;;;;;15.52;2.50;;;;;;;;;;5050016;28;20482;-71
2022/10/06 06:21:17;;;;;;;15.25;2.05;;;;;;;;;;5052611;28;20044;-71
2022/10/06 06:23:45;;;;;;;12.73;2.15;;;;;;;;;;5050289;28;20068;-71
2022/10/06 06:26:13;;;;;;;14.63;2.20;;;;;;;;;;5051962;28;20057;-71
2022/10/06 06:28:40;;;;;;;11.60;2.05;;;;;;;;;;5051243;28;20052;-71
2022/10/06 06:31:07;;;;;;;14.05;1.95;;;;;;;;;;5046540;28;20042;-71
2022/10/06 06:33:37;;;;;;;10.13;1.80;;;;;;;;;;5050948;28;20052;-70
2022/10/06 06:36:44;;;;;;;14.27;2.20;;;;;;;;;;5048040;28;20044;-70
2022/10/06 06:39:11;;;;;;;16.50;2.08;;;;;;;;;;5030695;28;20052;-70
2022/10/06 06:41:39;;;;;;;16.05;2.42;;;;;;;;;;5045968;28;20138;-72
2022/10/06 06:44:12;;;;;;;14.90;2.13;;;;;;;;;;5044051;28;20037;-71
2022/10/06 06:46:41;;;;;;;12.50;2.53;;;;;;;;;;5047015;28;20064;-71
2022/10/06 06:49:08;;;;;;;12.82;2.20;;;;;;;;;;5047272;28;20059;-71
2022/10/06 06:51:36;;;;;;;14.57;1.98;;;;;;;;;;5049017;28;20160;-70
2022/10/06 06:54:02;;;;;;;14.30;2.20;;;;;;;;;;5032327;28;20089;-71
2022/10/06 06:56:33;;;;;;;17.25;2.65;;;;;;;;;;5050293;28;20466;-71
2022/10/06 06:59:00;;;;;;;12.15;1.88;;;;;;;;;;5049473;28;20491;-72
2022/10/06 07:01:27;;;;;;;12.50;2.38;;;;;;;;;;5049236;28;20455;-71
2022/10/06 07:04:00;;;;;;;14.27;2.22;;;;;;;;;;5048284;28;20411;-72
2022/10/06 07:06:29;;;;;;;17.63;3.03;;;;;;;;;;5024419;28;20053;-72
2022/10/06 07:08:59;;;;;;;18.05;2.60;;;;;;;;;;5047201;28;20045;-72
2022/10/06 07:11:27;;;;;;;14.20;1.92;;;;;;;;;;5046616;28;20049;-72
2022/10/06 07:13:54;;;;;;;11.70;1.98;;;;;;;;;;5034755;28;20056;-72
2022/10/06 07:27:21;;;;;;;15.63;2.45;;;;;;;;;;5042580;28;20167;-72
2022/10/06 07:29:53;;;;;;;19.25;2.72;;;;;;;;;;5049650;28;20107;-73
2022/10/06 07:32:20;;;;;;;14.55;2.22;;;;;;;;;;5051658;28;20429;-72
2022/10/06 07:34:46;;;;;;;11.32;1.77;;;;;;;;;;5047159;28;20052;-72
2022/10/06 07:37:12;;;;;;;13.98;2.13;;;;;;;;;;5043291;28;20041;-72
2022/10/06 07:39:38;;;;;;;15.40;2.22;;;;;;;;;;5048072;28;20041;-72
2022/10/06 07:42:14;;;;;;;14.05;2.35;;;;;;;;;;5031814;28;20478;-72
2022/10/06 07:44:40;;;;;;;15.43;2.92;;;;;;;;;;5051993;28;20123;-72
2022/10/06 07:47:06;;;;;;;10.80;2.20;;;;;;;;;;5049797;28;20055;-72
2022/10/06 07:49:32;;;;;;;11.20;2.20;;;;;;;;;;5042852;28;20049;-71
2022/10/06 07:51:58;;;;;;;9.77;2.10;;;;;;;;;;5031673;28;20063;-72
2022/10/06 07:54:25;;;;;;;11.95;2.30;;;;;;;;;;5024740;28;20541;-71
2022/10/06 07:56:51;;;;;;;15.00;2.38;;;;;;;;;;5051426;28;20045;-72
2022/10/06 07:59:17;;;;;;;13.75;1.85;;;;;;;;;;5030099;28;20053;-72
2022/10/06 08:01:44;;;;;;;11.48;2.20;;;;;;;;;;5051171;28;20099;-72
2022/10/06 08:04:11;;;;;;;12.60;2.15;;;;;;;;;;5045989;28;20117;-72
2022/10/06 08:06:37;;;;;;;11.23;2.05;;;;;;;;;;5046875;28;20081;-72
2022/10/06 08:09:03;;;;;;;14.02;2.38;;;;;;;;;;5050304;28;20055;-72
2022/10/06 08:11:29;;;;;;;14.35;2.50;;;;;;;;;;5051118;28;20052;-72
2022/10/06 08:13:55;;;;;;;14.15;2.22;;;;;;;;;;5049662;28;20041;-72
2022/10/06 08:16:22;;;;;;;16.85;2.72;;;;;;;;;;5053669;28;20044;-72
2022/10/06 08:18:49;;;;;;;14.90;2.85;;;;;;;;;;5054242;28;20036;-72
2022/10/06 08:21:17;;;;;;;11.82;2.20;;;;;;;;;;5048051;28;20176;-72
2022/10/06 08:23:44;;;;;;;13.15;2.47;;;;;;;;;;5053480;28;20037;-73
2022/10/06 08:26:10;;;;;;;15.43;2.22;;;;;;;;;;5054287;28;20396;-72
2022/10/06 08:28:37;;;;;;;13.07;2.22;;;;;;;;;;5052469;28;20514;-72
2022/10/06 08:31:10;;;;;;;9.95;2.15;;;;;;;;;;5051943;28;20045;-72
2022/10/06 08:33:37;;;;;;;13.30;1.88;;;;;;;;;;5052622;28;20040;-73
2022/10/06 08:36:07;;;;;;;15.48;2.08;;;;;;;;;;5055737;28;20044;-75
2022/10/06 08:38:34;;;;;;;14.25;2.58;;;;;;;;;;5055228;28;20106;-73
2022/10/06 08:41:00;;;;;;;12.13;1.92;;;;;;;;;;5054071;28;20461;-73
2022/10/06 08:43:27;;;;;;;12.35;2.50;;;;;;;;;;5036503;28;20044;-74
2022/10/06 08:45:58;;;;;;;14.60;2.30;;;;;;;;;;5055250;28;20049;-73
2022/10/06 08:48:28;;;;;;;17.85;2.75;;;;;;;;;;5037064;28;20053;-74
2022/10/06 08:51:07;;;;;;;14.25;2.45;;;;;;;;;;5052938;28;20048;-74
2022/10/06 08:54:02;;;;;;;14.25;2.22;;;;;;;;;;5011775;28;20049;-74
2022/10/06 08:56:32;;;;;;;11.13;1.98;;;;;;;;;;5026929;28;20491;-74
2022/10/06 08:59:02;;;;;;;14.82;2.50;;;;;;;;;;5053566;28;20056;-74
2022/10/06 09:01:32;;;;;;;15.48;2.22;;;;;;;;;;5034785;28;20128;-75
2022/10/06 09:04:00;;;;;;;11.40;2.28;;;;;;;;;;5033911;28;20055;-74
2022/10/06 09:06:44;;;;;;;13.85;2.13;;;;;;;;;;5052544;28;20056;-74
2022/10/06 09:09:21;;;;;;;12.45;2.08;;;;;;;;;;5045879;28;20092;-74
2022/10/06 09:11:59;;;;;;;17.42;2.30;;;;;;;;;;5036831;28;20048;-74
2022/10/06 09:14:40;;;;;;;13.07;3.08;;;;;;;;;;5053370;28;20048;-75
2022/10/06 09:17:07;;;;;;;;;;;;;;;;;;5069659;28;20507;-74
2022/10/06 09:19:34;;;;;;;17.58;2.50;;;;;;;;;;5053787;28;20444;-74
2022/10/06 09:22:03;;;;;;;10.73;1.77;;;;;;;;;;5053752;28;20049;-73
2022/10/06 09:24:33;;;;;;;14.68;2.20;;;;;;;;;;5052284;28;20061;-73
2022/10/06 09:26:59;;;;;;;13.82;1.90;;;;;;;;;;5052244;28;20086;-73
2022/10/06 09:29:30;;;;;;;16.02;2.22;;;;;;;;;;5052523;28;20064;-73
2022/10/06 09:31:56;;;;;;;14.25;2.75;;;;;;;;;;5054033;28;20081;-72
2022/10/06 09:34:33;;;;;;;15.68;2.08;;;;;;;;;;5052470;28;20077;-72
2022/10/06 09:37:04;;;;;;;13.60;1.90;;;;;;;;;;5052967;28;20384;-72
2022/10/06 09:39:37;;;;;;;12.43;2.50;;;;;;;;;;5033396;28;20084;-75
2022/10/06 09:42:06;;;;;;;13.23;2.45;;;;;;;;;;5052964;28;20055;-72
2022/10/06 09:44:43;;;;;;;12.73;1.80;;;;;;;;;;5052298;28;20049;-72
2022/10/06 09:47:31;;;;;;;14.07;2.30;;;;;;;;;;5052778;28;20037;-72
2022/10/06 09:50:18;;;;;;;11.50;2.00;;;;;;;;;;5052752;28;20044;-73
2022/10/06 09:52:59;;;;;;;11.68;1.98;;;;;;;;;;5052023;28;20084;-72
2022/10/06 09:55:27;;;;;;;12.60;2.13;;;;;;;;;;5049983;28;20480;-72
2022/10/06 09:57:57;;;;;;;13.27;2.60;;;;;;;;;;5041915;28;20049;-72
2022/10/06 10:00:34;;;;;;;12.10;1.85;;;;;;;;;;5045182;28;20045;-72
2022/10/06 10:03:03;;;;;;;14.88;2.53;;;;;;;;;;5048775;28;20037;-71
2022/10/06 10:05:31;;;;;;;10.85;1.92;;;;;;;;;;5048581;28;20041;-72
2022/10/06 10:08:01;;;;;;;12.80;2.20;;;;;;;;;;5051383;28;20082;-72
2022/10/06 10:10:27;;;;;;;13.48;1.98;;;;;;;;;;5035716;28;20079;-72
2022/10/06 10:12:54;;;;;;;12.82;2.50;;;;;;;;;;5051395;28;20453;-72
2022/10/06 10:15:20;;;;;;;12.57;2.22;;;;;;;;;;5048071;28;20045;-71
2022/10/06 10:17:48;;;;;;;9.38;1.98;;;;;;;;;;5053100;28;20384;-72
2022/10/06 10:20:24;;;;;;;13.18;1.95;;;;;;;;;;5052485;28;20072;-72
2022/10/06 10:22:52;;;;;;;10.85;1.83;;;;;;;;;;5052852;28;20115;-72
2022/10/06 10:25:36;;;;;;;10.98;1.88;;;;;;;;;;5051757;28;20040;-72
2022/10/06 10:28:16;;;;;;;10.88;1.88;;;;;;;;;;5046406;28;20040;-71
2022/10/06 10:30:48;;;;;;;13.88;1.98;;;;;;;;;;5052768;28;20404;-71
2022/10/06 10:33:19;;;;;;;12.68;2.10;;;;;;;;;;5052511;28;20140;-72
2022/10/06 10:35:47;;;;;;;9.20;1.80;;;;;;;;;;5065509;28;20088;-71
2022/10/06 10:38:18;;;;;;;13.13;1.75;;;;;;;;;;5052155;28;20060;-72
2022/10/06 10:40:50;;;;;;;10.43;1.98;;;;;;;;;;5049417;28;20502;-71
2022/10/06 10:43:22;;;;;;;11.88;2.00;;;;;;;;;;5050774;28;20044;-71
2022/10/06 10:45:55;;;;;;;12.10;1.77;;;;;;;;;;5052027;28;20060;-71
2022/10/06 10:48:27;;;;;;;12.20;2.10;;;;;;;;;;5023233;28;20186;-72
2022/10/06 10:51:12;;;;;;;8.63;1.70;;;;;;;;;;5039611;28;20094;-72
2022/10/06 10:53:57;;;;;;;13.77;2.03;;;;;;;;;;5036068;28;20041;-71
2022/10/06 10:56:23;;;;;;;11.15;1.90;;;;;;;;;;5050130;28;20079;-72
2022/10/06 10:59:00;;;;;;;7.20;1.35;;;;;;;;;;5032626;28;20564;-71
2022/10/06 11:01:38;;;;;;;10.35;1.65;;;;;;;;;;5052611;28;20438;-71
2022/10/06 11:04:09;;;;;;;10.98;1.77;;;;;;;;;;5051037;28;20052;-72
2022/10/06 11:06:35;;;;;;;10.17;1.77;;;;;;;;;;5033921;28;20045;-71
2022/10/06 11:09:06;;;;;;;11.15;1.85;;;;;;;;;;5051257;28;20311;-71
2022/10/06 11:11:52;;;;;;;13.23;2.15;;;;;;;;;;5049660;28;20056;-71
2022/10/06 11:14:38;;;;;;;10.80;2.05;;;;;;;;;;5047174;28;20045;-71
2022/10/06 11:17:24;;;;;;;8.40;1.67;;;;;;;;;;5038094;28;20237;-71
2022/10/06 11:20:03;;;;;;;9.52;1.63;;;;;;;;;;5043768;28;20060;-71
2022/10/06 11:22:40;;;;;;;10.18;1.88;;;;;;;;;;5051426;28;20044;-71
2022/10/06 11:25:24;;;;;;;7.10;1.55;;;;;;;;;;5046823;28;20053;-72
2022/10/06 11:27:58;;;;;;;8.70;1.70;;;;;;;;;;5051805;28;20053;-71
2022/10/06 11:30:25;;;;;;;9.95;1.77;;;;;;;;;;5051942;28;20063;-71
2022/10/06 11:33:09;;;;;;;10.13;1.60;;;;;;;;;;5065886;28;20063;-72
2022/10/06 11:35:38;;;;;;;9.95;2.10;;;;;;;;;;5048096;28;20191;-73
2022/10/06 11:38:04;;;;;;;13.63;1.90;;;;;;;;;;5045413;28;20042;-73
2022/10/06 11:40:30;;;;;;;6.63;1.67;;;;;;;;;;5040850;28;20037;-73
2022/10/06 11:43:01;;;;;;;7.97;1.70;;;;;;;;;;5050009;28;20114;-73
2022/10/06 11:45:34;;;;;;;12.73;2.00;;;;;;;;;;5051000;28;20045;-73
2022/10/06 11:48:23;;;;;;;8.55;1.40;;;;;;;;;;5042144;28;20099;-73
2022/10/06 11:50:54;;;;;;;11.40;1.83;;;;;;;;;;5048538;28;20069;-72
2022/10/06 11:53:27;;;;;;;9.57;1.55;;;;;;;;;;5048499;28;20048;-73
2022/10/06 11:56:12;;;;;;;9.60;1.52;;;;;;;;;;5013856;28;20514;-73
2022/10/06 11:58:50;;;;;;;7.88;1.42;;;;;;;;;;5049127;28;20422;-73
2022/10/06 12:01:35;;;;;;;9.18;1.45;;;;;;;;;;5050355;28;20103;-73
2022/10/06 12:04:12;;;;;;;9.35;1.42;;;;;;;;;;5031631;28;20402;-74
2022/10/06 12:06:44;;;;;;;8.68;1.33;;;;;;;;;;5051633;28;20098;-73
2022/10/06 12:09:31;;;;;;;8.77;1.60;;;;;;;;;;5051334;28;20057;-73
2022/10/06 12:12:06;;;;;;;11.55;1.67;;;;;;;;;;5047488;28;20124;-73
2022/10/06 12:14:35;;;;;;;10.10;1.50;;;;;;;;;;5051167;28;20083;-73
2022/10/06 12:17:14;;;;;;;9.48;1.67;;;;;;;;;;5051804;28;21764;-73
2022/10/06 12:19:40;;;;;;;10.40;1.70;;;;;;;;;;5053335;28;20075;-73
2022/10/06 12:22:15;;;;;;;10.23;1.65;;;;;;;;;;5028472;28;20502;-72
2022/10/06 12:24:41;;;;;;;11.20;1.90;;;;;;;;;;5045526;28;20092;-73
2022/10/06 12:27:20;;;;;;;9.88;1.58;;;;;;;;;;5027222;28;20041;-73
2022/10/06 12:29:59;;;;;;;13.65;1.80;;;;;;;;;;5049864;28;20065;-73
2022/10/06 12:32:36;;;;;;;15.80;2.40;;;;;;;;;;5048686;28;20053;-73
2022/10/06 12:35:08;;;;;;;9.63;1.50;;;;;;;;;;5048027;28;20114;-73
2022/10/06 12:37:37;;;;;;;12.40;1.73;;;;;;;;;;5041733;28;20040;-73
2022/10/06 12:40:22;;;;;;;10.52;1.80;;;;;;;;;;5031140;28;20053;-73
2022/10/06 12:42:48;;;;;;;11.50;1.67;;;;;;;;;;5031870;28;20049;-73
2022/10/06 12:45:16;;;;;;;8.27;1.35;;;;;;;;;;5047771;28;20044;-73
2022/10/06 12:47:43;;;;;;;10.75;1.75;;;;;;;;;;5045431;28;20496;-73
2022/10/06 12:50:19;;;;;;;9.35;1.75;;;;;;;;;;5043029;28;20036;-74
2022/10/06 12:52:48;;;;;;;8.18;1.65;;;;;;;;;;5055169;28;20156;-73
2022/10/06 12:55:32;;;;;;;6.93;1.20;;;;;;;;;;5048256;28;20041;-72
2022/10/06 12:58:00;;;;;;;8.52;1.25;;;;;;;;;;5035171;28;20136;-71
2022/10/06 13:00:33;;;;;;;6.78;1.17;;;;;;;;;;5039176;28;20124;-71
2022/10/06 13:03:02;;;;;;;4.97;0.80;;;;;;;;;;5030379;28;20057;-71
2022/10/06 13:05:28;;;;;;;6.93;1.13;;;;;;;;;;5054133;28;20087;-71
2022/10/06 13:08:02;;;;;;;8.73;1.20;;;;;;;;;;5053466;28;20053;-71
2022/10/06 13:10:28;;;;;;;8.93;1.20;;;;;;;;;;5052105;28;20048;-71
2022/10/06 13:12:56;;;;;;;6.68;1.15;;;;;;;;;;5052341;28;20107;-71
2022/10/06 13:15:33;;;;;;;8.35;1.40;;;;;;;;;;5035850;28;20045;-71
2022/10/06 13:18:15;;;;;;;7.65;1.20;;;;;;;;;;5052367;28;20041;-70
2022/10/06 13:21:02;;;;;;;8.75;1.20;;;;;;;;;;5053943;28;20083;-70
2022/10/06 13:23:38;;;;;;;8.52;1.70;;;;;;;;;;5042919;28;20045;-71
2022/10/06 13:26:05;;;;;;;7.70;1.00;;;;;;;;;;5061736;28;20048;-71
2022/10/06 13:28:45;;;;;;;5.90;1.08;;;;;;;;;;5053290;28;20045;-71
2022/10/06 13:31:14;;;;;;;8.80;1.02;;;;;;;;;;5054239;28;20136;-71
2022/10/06 13:33:41;;;;;;;7.97;1.30;;;;;;;;;;5053987;28;20049;-70
2022/10/06 13:36:08;;;;;;;10.50;1.30;;;;;;;;;;5053367;28;20121;-71
2022/10/06 13:38:35;;;;;;;7.53;1.23;;;;;;;;;;5053748;28;20049;-70
2022/10/06 13:41:05;;;;;;;4.82;0.90;;;;;;;;;;5052333;28;20041;-73
2022/10/06 13:43:32;;;;;;;6.95;1.10;;;;;;;;;;5053793;28;20049;-71
2022/10/06 13:45:59;;;;;;;6.72;1.20;;;;;;;;;;5053798;28;20044;-71
2022/10/06 13:48:26;;;;;;;10.32;1.50;;;;;;;;;;5035848;28;20048;-71
2022/10/06 13:50:52;;;;;;;10.20;1.73;;;;;;;;;;5036015;28;20049;-70
2022/10/06 13:53:22;;;;;;;8.35;1.20;;;;;;;;;;5053756;28;20041;-71
2022/10/06 13:55:49;;;;;;;7.83;1.30;;;;;;;;;;5025129;28;20396;-70
2022/10/06 13:58:22;;;;;;;7.63;1.10;;;;;;;;;;5053392;28;20045;-70
2022/10/06 14:00:59;;;;;;;7.55;1.20;;;;;;;;;;5053282;28;20053;-70
2022/10/06 14:03:25;;;;;;;8.85;1.40;;;;;;;;;;5053543;28;20142;-71
2022/10/06 14:06:03;;;;;;;11.23;1.50;;;;;;;;;;5049955;28;20060;-71
2022/10/06 14:08:29;;;;;;;7.25;1.20;;;;;;;;;;5044616;28;20064;-71
2022/10/06 14:10:57;;;;;;;7.25;1.15;;;;;;;;;;5048975;28;20069;-71
2022/10/06 14:13:31;;;;;;;6.65;1.20;;;;;;;;;;5033653;28;20110;-72
2022/10/06 14:16:02;;;;;;;8.73;1.67;;;;;;;;;;5050495;28;20064;-71
2022/10/06 14:18:31;;;;;;;7.45;1.25;;;;;;;;;;5034197;28;20459;-71
2022/10/06 14:20:57;;;;;;;9.90;1.30;;;;;;;;;;5043623;28;20045;-71
2022/10/06 14:23:39;;;;;;;7.65;1.55;;;;;;;;;;5061294;28;20041;-71
2022/10/06 14:26:05;;;;;;;;;;;;;;;;;;5057673;28;20064;-72
2022/10/06 14:28:31;;;;;;;8.38;1.52;;;;;;;;;;5052760;28;19972;-72
2022/10/06 14:30:57;;;;;;;7.80;1.17;;;;;;;;;;5052456;28;20442;-72
2022/10/06 14:33:26;;;;;;;8.80;1.33;;;;;;;;;;5051956;28;20052;-71
2022/10/06 14:35:52;;;;;;;8.35;1.27;;;;;;;;;;5051924;28;20037;-72
2022/10/06 14:38:19;;;;;;;8.98;1.52;;;;;;;;;;5063589;28;20048;-72
2022/10/06 14:40:45;;;;;;;10.65;1.48;;;;;;;;;;5062779;28;20088;-72
2022/10/06 14:43:11;;;;;;;12.30;1.50;;;;;;;;;;5051002;28;20057;-72
2022/10/06 14:45:43;;;;;;;8.40;1.38;;;;;;;;;;5052740;28;20053;-72
2022/10/06 14:48:10;;;;;;;9.95;1.50;;;;;;;;;;5052439;28;20049;-72
2022/10/06 14:50:36;;;;;;;11.48;1.90;;;;;;;;;;5050179;28;20554;-71
2022/10/06 14:53:03;;;;;;;9.07;1.33;;;;;;;;;;5051599;28;20045;-71
2022/10/06 14:55:30;;;;;;;9.05;1.40;;;;;;;;;;5048812;28;20052;-71
2022/10/06 14:57:59;;;;;;;8.23;1.60;;;;;;;;;;5041771;28;20054;-72
2022/10/06 15:00:27;;;;;;;8.73;1.27;;;;;;;;;;5032560;28;20052;-72